createdAt,value
2023-02-27T00:00:45.611Z,91.18
2023-02-27T00:03:15.180Z,90.33
2023-02-27T00:05:45.148Z,91.75
2023-02-27T00:08:15.361Z,91.52
2023-02-27T00:10:45.245Z,91.30
2023-02-27T00:13:15.510Z,91.80
2023-02-27T00:15:51.483Z,92.39
2023-02-27T00:18:21.749Z,93.18
2023-02-27T00:20:51.942Z,93.33
2023-02-27T00:23:21.625Z,92.40
2023-02-27T00:25:51.422Z,93.39
2023-02-27T00:28:21.450Z,93.75
2023-02-27T00:30:51.669Z,94.14
2023-02-27T00:33:21.736Z,93.69
2023-02-27T00:36:02.726Z,94.22
2023-02-27T00:38:33.160Z,93.79
2023-02-27T00:41:03.066Z,93.51
2023-02-27T00:43:33.033Z,93.86
2023-02-27T00:46:03.177Z,94.59
2023-02-27T00:48:32.818Z,93.96
2023-02-27T00:51:04.205Z,94.13
2023-02-27T00:53:34.737Z,94.81
2023-02-27T00:56:04.788Z,94.62
2023-02-27T00:58:34.353Z,93.80
2023-02-27T01:01:04.128Z,94.51
2023-02-27T01:03:34.218Z,94.47
2023-02-27T01:06:04.403Z,94.27
2023-02-27T01:08:33.969Z,93.31
2023-02-27T01:11:07.965Z,94.23
2023-02-27T01:13:38.082Z,93.85
2023-02-27T01:16:09.717Z,93.60
2023-02-27T01:18:40.175Z,92.84
2023-02-27T01:21:10.379Z,93.17
2023-02-27T01:23:41.046Z,93.42
2023-02-27T01:26:11.193Z,94.55
2023-02-27T01:28:41.288Z,94.10
2023-02-27T01:31:11.607Z,93.63
2023-02-27T01:33:41.160Z,93.15
2023-02-27T01:36:11.483Z,93.70
2023-02-27T01:38:41.555Z,93.67
2023-02-27T01:41:11.966Z,94.40
2023-02-27T01:44:00.295Z,94.51
2023-02-27T01:46:32.071Z,94.07
2023-02-27T01:49:36.031Z,93.46
2023-02-27T01:52:12.603Z,94.17
2023-02-27T01:54:43.486Z,94.49
2023-02-27T01:57:13.607Z,93.79
2023-02-27T01:59:44.789Z,93.59
2023-02-27T02:02:39.016Z,93.57
2023-02-27T02:05:10.203Z,94.35
2023-02-27T02:07:42.187Z,94.44
2023-02-27T02:10:14.329Z,95.16
2023-02-27T02:12:45.419Z,95.22
2023-02-27T02:15:15.658Z,95.15
2023-02-27T02:18:05.325Z,94.54
2023-02-27T02:20:41.313Z,95.17
2023-02-27T02:23:35.584Z,95.14
2023-02-27T02:26:08.988Z,95.31
2023-02-27T02:29:16.761Z,95.37
2023-02-27T02:32:07.953Z,95.18
2023-02-27T02:35:07.260Z,95.50
2023-02-27T02:38:00.342Z,95.33
2023-02-27T02:40:36.266Z,96.23
2023-02-27T02:43:32.821Z,96.14
2023-02-27T02:46:31.458Z,96.22
2023-02-27T02:49:21.003Z,96.85
2023-02-27T02:51:57.949Z,97.92
2023-02-27T02:54:34.224Z,97.78
2023-02-27T02:57:08.523Z,97.11
2023-02-27T02:59:44.585Z,97.40
2023-02-27T03:02:24.196Z,97.73
2023-02-27T03:05:00.130Z,97.36
2023-02-27T03:08:21.309Z,97.41
2023-02-27T03:10:53.718Z,97.21
2023-02-27T03:13:39.392Z,96.70
2023-02-27T03:16:37.066Z,97.21
2023-02-27T03:19:19.794Z,98.18
2023-02-27T03:22:18.010Z,98.45
2023-02-27T03:24:58.009Z,97.61
2023-02-27T03:27:41.491Z,97.94
2023-02-27T03:30:14.163Z,98.69
2023-02-27T03:33:01.659Z,98.50
2023-02-27T03:35:45.297Z,98.37
2023-02-27T03:38:42.228Z,98.50
2023-02-27T03:41:20.166Z,98.45
2023-02-27T03:44:52.392Z,98.48
2023-02-27T03:47:23.586Z,98.34
2023-02-27T03:49:54.302Z,97.84
2023-02-27T03:52:24.267Z,97.61
2023-02-27T03:55:40.496Z,97.47
2023-02-27T03:58:10.961Z,98.28
2023-02-27T04:00:40.450Z,98.00
2023-02-27T04:03:10.788Z,98.83
2023-02-27T04:05:40.971Z,98.76
2023-02-27T04:08:27.459Z,98.09
2023-02-27T04:11:12.467Z,97.75
2023-02-27T04:13:42.481Z,98.02
2023-02-27T04:16:21.147Z,98.30
2023-02-27T04:19:12.640Z,97.73
2023-02-27T04:22:03.364Z,97.99
2023-02-27T04:24:45.437Z,98.59
2023-02-27T04:27:53.000Z,98.15
2023-02-27T04:30:28.815Z,97.63
2023-02-27T04:33:01.593Z,97.84
2023-02-27T04:35:41.044Z,99.00
2023-02-27T04:38:27.760Z,98.79
2023-02-27T04:41:10.499Z,99.45
2023-02-27T04:43:41.128Z,98.41
2023-02-27T04:46:14.606Z,98.79
2023-02-27T04:48:59.781Z,98.36
2023-02-27T04:51:53.372Z,98.88
2023-02-27T04:55:04.472Z,98.96
2023-02-27T04:57:42.465Z,99.29
2023-02-27T05:00:15.134Z,98.88
2023-02-27T05:02:49.467Z,98.75
2023-02-27T05:05:27.211Z,98.73
2023-02-27T05:08:24.812Z,98.58
2023-02-27T05:11:27.363Z,98.39
2023-02-27T05:14:26.652Z,98.23
2023-02-27T05:17:06.864Z,98.10
2023-02-27T05:19:40.406Z,98.52
2023-02-27T05:22:45.369Z,98.60
2023-02-27T05:25:48.965Z,98.97
2023-02-27T05:28:21.150Z,99.60
2023-02-27T05:31:12.466Z,98.95
2023-02-27T05:33:52.179Z,98.69
2023-02-27T05:36:33.613Z,99.02
2023-02-27T05:39:11.933Z,99.00
2023-02-27T05:42:14.374Z,98.70
2023-02-27T05:44:51.284Z,98.96
2023-02-27T05:47:26.598Z,98.95
2023-02-27T05:50:03.565Z,99.03
2023-02-27T05:52:35.863Z,98.39
2023-02-27T05:55:23.697Z,98.96
2023-02-27T05:58:29.108Z,99.13
2023-02-27T06:01:04.906Z,98.88
2023-02-27T06:03:37.245Z,99.06
2023-02-27T06:06:15.120Z,99.44
2023-02-27T06:08:46.016Z,99.60
2023-02-27T06:11:16.244Z,98.96
2023-02-27T06:13:45.866Z,98.89
2023-02-27T06:16:17.520Z,99.50
2023-02-27T06:18:47.709Z,99.17
2023-02-27T06:21:17.530Z,99.48
2023-02-27T06:23:47.599Z,99.17
2023-02-27T06:26:17.446Z,98.56
2023-02-27T06:28:47.743Z,98.89
2023-02-27T06:31:17.752Z,98.78
2023-02-27T06:33:47.526Z,99.51
2023-02-27T06:36:17.430Z,99.32
2023-02-27T06:38:47.560Z,99.02
2023-02-27T06:41:17.613Z,99.24
2023-02-27T06:43:47.485Z,99.67
2023-02-27T06:46:18.333Z,99.83
2023-02-27T06:48:48.305Z,99.45
2023-02-27T06:51:18.402Z,99.99
2023-02-27T06:53:49.196Z,99.32
2023-02-27T06:56:20.100Z,99.06
2023-02-27T06:58:50.383Z,99.69
2023-02-27T07:01:20.747Z,99.25
2023-02-27T07:03:50.843Z,99.29
2023-02-27T07:06:20.919Z,99.43
2023-02-27T07:09:11.254Z,99.08
2023-02-27T07:11:41.324Z,98.94
2023-02-27T07:14:11.777Z,99.32
2023-02-27T07:16:41.882Z,99.26
2023-02-27T07:19:12.902Z,99.22
2023-02-27T07:21:43.019Z,98.75
2023-02-27T07:24:13.268Z,99.22
2023-02-27T07:26:42.906Z,99.00
2023-02-27T07:29:13.054Z,99.31
2023-02-27T07:31:43.575Z,99.12
2023-02-27T07:34:14.927Z,99.38
2023-02-27T07:36:45.243Z,98.90
2023-02-27T07:39:15.779Z,98.91
2023-02-27T07:41:45.893Z,98.68
2023-02-27T07:44:20.098Z,99.34
2023-02-27T07:46:49.852Z,99.00
2023-02-27T07:49:19.921Z,99.25
2023-02-27T07:51:50.352Z,99.69
2023-02-27T07:54:20.482Z,99.51
2023-02-27T07:56:50.924Z,99.35
2023-02-27T07:59:20.998Z,99.69
2023-02-27T08:01:51.166Z,99.73
2023-02-27T08:04:21.258Z,99.64
2023-02-27T08:06:51.506Z,99.99
2023-02-27T08:09:21.095Z,99.41
2023-02-27T08:11:51.116Z,99.72
2023-02-27T08:14:21.677Z,99.60
2023-02-27T08:16:51.865Z,99.53
2023-02-27T08:19:22.017Z,99.76
2023-02-27T08:21:52.113Z,99.42
2023-02-27T08:24:22.255Z,99.47
2023-02-27T08:26:52.363Z,99.99
2023-02-27T08:29:22.537Z,99.91
2023-02-27T08:31:52.747Z,99.83
2023-02-27T08:34:22.977Z,99.99
2023-02-27T08:36:53.766Z,99.99
2023-02-27T08:39:25.356Z,99.87
2023-02-27T08:41:55.844Z,99.99
2023-02-27T08:44:25.986Z,99.93
2023-02-27T08:46:56.084Z,99.92
2023-02-27T08:49:27.590Z,99.85
2023-02-27T08:51:57.723Z,99.78
2023-02-27T08:54:27.698Z,99.99
2023-02-27T08:56:57.825Z,99.99
2023-02-27T08:59:28.183Z,99.93
2023-02-27T09:01:58.636Z,99.99
2023-02-27T09:04:28.892Z,99.99
2023-02-27T09:06:59.174Z,99.93
2023-02-27T09:09:29.374Z,99.83
2023-02-27T09:11:59.739Z,99.99
2023-02-27T09:14:29.718Z,99.97
2023-02-27T09:16:59.869Z,99.99
2023-02-27T09:19:30.165Z,99.99
2023-02-27T09:22:00.375Z,99.99
2023-02-27T09:24:30.554Z,99.99
2023-02-27T09:27:00.634Z,99.99
2023-02-27T09:29:30.579Z,99.99
2023-02-27T09:32:00.866Z,99.99
2023-02-27T09:34:30.959Z,99.99
2023-02-27T09:37:01.881Z,99.99
2023-02-27T09:39:32.173Z,99.99
2023-02-27T09:42:18.347Z,99.99
2023-02-27T09:45:18.532Z,99.99
2023-02-27T09:47:53.312Z,99.63
2023-02-27T09:50:38.908Z,99.70
2023-02-27T09:53:18.428Z,99.54
2023-02-27T09:55:48.908Z,99.11
2023-02-27T09:58:39.770Z,99.03
2023-02-27T10:01:17.762Z,98.41
2023-02-27T10:04:24.952Z,99.04
2023-02-27T10:07:29.925Z,99.11
2023-02-27T10:10:18.418Z,98.70
2023-02-27T10:12:56.360Z,98.47
2023-02-27T10:15:58.926Z,98.56
2023-02-27T10:18:59.282Z,98.63
2023-02-27T10:21:49.722Z,98.65
2023-02-27T10:24:29.547Z,98.16
2023-02-27T10:27:02.675Z,97.62
2023-02-27T10:29:37.766Z,97.70
2023-02-27T10:32:13.234Z,97.30
2023-02-27T10:34:45.906Z,96.97
2023-02-27T10:37:20.000Z,96.70
2023-02-27T10:39:55.297Z,95.74
2023-02-27T10:42:31.734Z,96.26
2023-02-27T10:45:01.460Z,95.49
2023-02-27T10:47:32.192Z,96.57
2023-02-27T10:50:02.379Z,96.10
2023-02-27T10:52:33.225Z,95.97
2023-02-27T10:55:20.627Z,95.43
2023-02-27T10:57:50.815Z,95.57
2023-02-27T11:00:50.624Z,95.14
2023-02-27T11:03:25.305Z,94.61
2023-02-27T11:06:02.020Z,94.87
2023-02-27T11:08:34.037Z,94.01
2023-02-27T11:11:13.076Z,94.38
2023-02-27T11:13:47.091Z,93.49
2023-02-27T11:16:22.571Z,93.75
2023-02-27T11:18:55.515Z,93.09
2023-02-27T11:21:31.453Z,92.62
2023-02-27T11:24:01.736Z,93.07
2023-02-27T11:26:38.986Z,93.12
2023-02-27T11:29:09.427Z,93.42
2023-02-27T11:31:41.124Z,91.17
2023-02-27T11:34:30.498Z,92.79
2023-02-27T11:37:28.111Z,92.43
2023-02-27T11:40:14.705Z,91.36
2023-02-27T11:42:57.873Z,92.34
2023-02-27T11:46:12.684Z,92.56
2023-02-27T11:48:41.139Z,91.78
2023-02-27T11:51:34.138Z,91.47
2023-02-27T11:54:35.891Z,90.98
2023-02-27T11:57:20.999Z,91.45
2023-02-27T12:00:30.374Z,90.67
2023-02-27T12:03:12.790Z,90.82
2023-02-27T12:05:49.339Z,91.06
2023-02-27T12:08:36.432Z,90.82
2023-02-27T12:11:14.223Z,91.13
2023-02-27T12:13:52.715Z,90.58
2023-02-27T12:16:26.375Z,89.68
2023-02-27T12:19:18.134Z,90.48
2023-02-27T12:21:59.844Z,89.67
2023-02-27T12:24:55.439Z,90.48
2023-02-27T12:27:44.941Z,89.85
2023-02-27T12:30:29.356Z,89.15
2023-02-27T12:33:00.333Z,89.70
2023-02-27T12:35:36.084Z,89.14
2023-02-27T12:38:07.321Z,88.75
2023-02-27T12:40:48.513Z,88.86
2023-02-27T12:43:40.248Z,88.64
2023-02-27T12:47:00.786Z,88.52
2023-02-27T12:49:45.237Z,87.20
2023-02-27T12:52:26.128Z,87.87
2023-02-27T12:55:29.500Z,86.40
2023-02-27T12:58:21.045Z,86.14
2023-02-27T13:01:02.130Z,85.60
2023-02-27T13:03:37.354Z,84.64
2023-02-27T13:06:28.300Z,85.03
2023-02-27T13:09:29.686Z,84.75
2023-02-27T13:12:09.281Z,82.92
2023-02-27T13:15:03.468Z,83.77
2023-02-27T13:17:44.275Z,83.89
2023-02-27T13:20:20.004Z,83.18
2023-02-27T13:23:04.518Z,82.07
2023-02-27T13:25:39.835Z,83.41
2023-02-27T13:28:20.118Z,80.48
2023-02-27T13:31:10.644Z,81.30
2023-02-27T13:33:52.686Z,81.71
2023-02-27T13:36:37.123Z,81.47
2023-02-27T13:39:57.403Z,81.12
2023-02-27T13:42:31.755Z,79.90
2023-02-27T13:45:06.201Z,79.10
2023-02-27T13:47:41.608Z,78.92
2023-02-27T13:50:22.476Z,79.71
2023-02-27T13:52:53.488Z,78.61
2023-02-27T13:55:29.686Z,78.78
2023-02-27T13:58:02.429Z,78.56
2023-02-27T14:00:36.129Z,75.92
2023-02-27T14:03:27.047Z,77.96
2023-02-27T14:06:00.849Z,76.41
2023-02-27T14:08:38.258Z,75.62
2023-02-27T14:11:17.505Z,76.42
2023-02-27T14:13:47.612Z,76.05
2023-02-27T14:16:35.664Z,77.25
2023-02-27T14:19:25.781Z,75.37
2023-02-27T14:22:14.233Z,77.41
2023-02-27T14:25:02.940Z,75.98
2023-02-27T14:27:48.250Z,75.68
2023-02-27T14:30:46.982Z,75.03
2023-02-27T14:33:37.628Z,72.17
2023-02-27T14:36:17.613Z,73.46
2023-02-27T14:38:48.014Z,72.76
2023-02-27T14:41:24.015Z,71.84
2023-02-27T14:43:59.166Z,74.34
2023-02-27T14:46:33.265Z,73.05
2023-02-27T14:49:08.436Z,72.42
2023-02-27T14:51:39.725Z,71.27
2023-02-27T14:54:17.463Z,73.57
2023-02-27T14:57:01.131Z,70.97
2023-02-27T14:59:37.972Z,71.62
2023-02-27T15:02:35.124Z,69.54
2023-02-27T15:05:05.258Z,69.56
2023-02-27T15:07:36.884Z,69.77
2023-02-27T15:10:09.875Z,72.60
2023-02-27T15:12:41.450Z,67.04
2023-02-27T15:15:18.033Z,68.89
2023-02-27T15:17:49.432Z,67.66
2023-02-27T15:20:37.296Z,69.51
2023-02-27T15:23:29.054Z,70.03
2023-02-27T15:26:00.867Z,66.58
2023-02-27T15:28:39.458Z,68.18
2023-02-27T15:31:14.313Z,67.61
2023-02-27T15:33:44.995Z,68.10
2023-02-27T15:36:36.273Z,67.76
2023-02-27T15:39:10.022Z,65.70
2023-02-27T15:41:40.396Z,64.64
2023-02-27T15:44:12.861Z,66.93
2023-02-27T15:46:44.026Z,65.42
2023-02-27T15:49:25.196Z,67.74
2023-02-27T15:52:04.276Z,66.74
2023-02-27T15:54:37.773Z,66.74
2023-02-27T15:57:08.790Z,68.27
2023-02-27T15:59:43.756Z,66.75
2023-02-27T16:02:44.938Z,66.50
2023-02-27T16:05:25.532Z,65.63
2023-02-27T16:07:56.851Z,64.54
2023-02-27T16:10:36.805Z,66.88
2023-02-27T16:13:45.110Z,68.50
2023-02-27T16:16:36.503Z,64.41
2023-02-27T16:19:28.716Z,64.58
2023-02-27T16:22:16.699Z,64.95
2023-02-27T16:24:47.818Z,62.93
2023-02-27T16:27:29.120Z,63.33
2023-02-27T16:30:03.720Z,64.96
2023-02-27T16:32:41.431Z,63.44
2023-02-27T16:35:24.304Z,66.01
2023-02-27T16:37:54.850Z,64.60
2023-02-27T16:40:27.524Z,63.23
2023-02-27T16:42:58.620Z,62.94
2023-02-27T16:45:30.556Z,64.00
2023-02-27T16:48:02.393Z,63.26
2023-02-27T16:50:37.199Z,62.26
2023-02-27T16:53:07.357Z,62.98
2023-02-27T16:55:41.521Z,62.90
2023-02-27T16:58:18.886Z,58.76
2023-02-27T17:00:49.199Z,61.98
2023-02-27T17:03:19.384Z,60.06
2023-02-27T17:05:50.015Z,62.19
2023-02-27T17:08:20.724Z,62.72
2023-02-27T17:10:50.751Z,61.56
2023-02-27T17:13:21.308Z,61.16
2023-02-27T17:15:51.500Z,61.13
2023-02-27T17:18:21.874Z,62.60
2023-02-27T17:20:52.397Z,62.17
2023-02-27T17:23:22.472Z,60.13
2023-02-27T17:25:55.630Z,60.34
2023-02-27T17:28:26.931Z,61.40
2023-02-27T17:30:57.086Z,61.19
2023-02-27T17:33:27.550Z,58.83
2023-02-27T17:36:07.844Z,59.66
2023-02-27T17:38:38.909Z,60.33
2023-02-27T17:41:10.490Z,60.81
2023-02-27T17:43:42.762Z,60.98
2023-02-27T17:46:15.840Z,61.09
2023-02-27T17:48:46.009Z,61.74
2023-02-27T17:51:17.843Z,63.04
2023-02-27T17:53:48.199Z,63.42
2023-02-27T17:56:19.892Z,63.47
2023-02-27T17:58:50.224Z,61.42
2023-02-27T18:01:26.445Z,61.71
2023-02-27T18:03:57.133Z,61.12
2023-02-27T18:06:27.547Z,62.06
2023-02-27T18:08:58.022Z,61.65
2023-02-27T18:11:28.191Z,60.40
2023-02-27T18:13:58.315Z,61.12
2023-02-27T18:16:28.811Z,60.05
2023-02-27T18:18:59.216Z,58.88
2023-02-27T18:21:29.399Z,61.55
2023-02-27T18:23:59.606Z,61.71
2023-02-27T18:26:32.992Z,60.29
2023-02-27T18:29:09.347Z,63.11
2023-02-27T18:31:45.059Z,62.61
2023-02-27T18:34:15.665Z,64.49
2023-02-27T18:36:45.827Z,63.65
2023-02-27T18:39:16.397Z,65.12
2023-02-27T18:41:46.698Z,64.48
2023-02-27T18:44:17.168Z,64.40
2023-02-27T18:46:47.185Z,63.60
2023-02-27T18:49:17.392Z,63.29
2023-02-27T18:51:47.606Z,64.11
2023-02-27T18:54:17.077Z,65.41
2023-02-27T18:56:46.908Z,63.84
2023-02-27T18:59:17.107Z,66.08
2023-02-27T19:01:47.190Z,65.57
2023-02-27T19:04:17.535Z,65.91
2023-02-27T19:06:47.795Z,66.58
2023-02-27T19:09:17.939Z,65.92
2023-02-27T19:11:48.983Z,65.72
2023-02-27T19:14:19.141Z,65.27
2023-02-27T19:16:51.933Z,66.37
2023-02-27T19:19:22.090Z,66.12
2023-02-27T19:21:52.121Z,65.55
2023-02-27T19:24:22.496Z,66.75
2023-02-27T19:26:53.577Z,64.75
2023-02-27T19:29:24.198Z,66.00
2023-02-27T19:31:54.450Z,66.59
2023-02-27T19:34:24.617Z,65.17
2023-02-27T19:36:54.773Z,66.24
2023-02-27T19:39:24.098Z,67.49
2023-02-27T19:41:54.176Z,68.04
2023-02-27T19:44:24.413Z,67.76
2023-02-27T19:46:54.667Z,68.18
2023-02-27T19:49:24.847Z,68.67
2023-02-27T19:51:54.301Z,69.50
2023-02-27T19:54:25.176Z,68.63
2023-02-27T19:56:55.540Z,68.30
2023-02-27T19:59:25.861Z,69.21
2023-02-27T20:01:56.027Z,69.79
2023-02-27T20:04:26.219Z,70.36
2023-02-27T20:06:56.507Z,72.14
2023-02-27T20:09:28.049Z,72.69
2023-02-27T20:12:00.363Z,72.33
2023-02-27T20:14:31.376Z,73.11
2023-02-27T20:17:01.580Z,72.79
2023-02-27T20:19:31.719Z,73.04
2023-02-27T20:22:01.819Z,73.07
2023-02-27T20:24:32.147Z,73.40
2023-02-27T20:27:02.550Z,73.28
2023-02-27T20:29:32.692Z,72.80
2023-02-27T20:32:03.056Z,73.18
2023-02-27T20:34:33.411Z,72.30
2023-02-27T20:37:04.325Z,72.03
2023-02-27T20:39:34.395Z,71.76
2023-02-27T20:42:04.031Z,68.65
2023-02-27T20:44:34.043Z,70.73
2023-02-27T20:47:07.870Z,73.45
2023-02-27T20:49:39.753Z,74.88
2023-02-27T20:52:09.818Z,76.65
2023-02-27T20:54:40.082Z,77.33
2023-02-27T20:57:10.163Z,78.45
2023-02-27T20:59:41.147Z,78.66
2023-02-27T21:02:12.483Z,79.93
2023-02-27T21:04:48.279Z,79.48
2023-02-27T21:07:22.552Z,80.56
2023-02-27T21:09:52.948Z,80.54
2023-02-27T21:12:23.029Z,80.86
2023-02-27T21:14:53.107Z,80.72
2023-02-27T21:17:24.732Z,81.86
2023-02-27T21:19:55.016Z,81.75
2023-02-27T21:22:24.955Z,81.82
2023-02-27T21:24:55.098Z,82.04
2023-02-27T21:27:25.358Z,82.08
2023-02-27T21:29:55.760Z,82.00
2023-02-27T21:32:25.868Z,82.59
2023-02-27T21:34:56.329Z,81.91
2023-02-27T21:37:27.295Z,82.04
2023-02-27T21:39:58.422Z,82.09
2023-02-27T21:42:28.491Z,82.51
2023-02-27T21:44:58.855Z,82.84
2023-02-27T21:47:30.710Z,83.07
2023-02-27T21:50:00.959Z,83.69
2023-02-27T21:52:32.735Z,83.84
2023-02-27T21:55:02.983Z,84.59
2023-02-27T21:57:33.012Z,84.53
2023-02-27T22:00:02.622Z,84.06
2023-02-27T22:02:38.907Z,84.75
2023-02-27T22:05:09.754Z,85.25
2023-02-27T22:07:39.785Z,85.86
2023-02-27T22:10:10.254Z,85.85
2023-02-27T22:12:40.424Z,85.89
2023-02-27T22:15:11.382Z,86.10
2023-02-27T22:17:41.715Z,86.17
2023-02-27T22:20:12.793Z,86.48
2023-02-27T22:22:42.887Z,86.81
2023-02-27T22:25:12.529Z,85.66
2023-02-27T22:27:42.305Z,86.64
2023-02-27T22:30:12.350Z,85.81
2023-02-27T22:32:43.216Z,87.28
2023-02-27T22:35:13.818Z,86.75
2023-02-27T22:37:43.933Z,87.31
2023-02-27T22:40:13.764Z,86.59
2023-02-27T22:42:44.194Z,86.88
2023-02-27T22:45:15.440Z,87.79
2023-02-27T22:47:45.537Z,87.70
2023-02-27T22:50:17.249Z,87.63
2023-02-27T22:52:47.339Z,87.60
2023-02-27T22:55:17.643Z,87.64
2023-02-27T22:57:51.085Z,88.03
2023-02-27T23:00:21.408Z,87.45
2023-02-27T23:02:50.826Z,86.89
2023-02-27T23:05:20.626Z,87.57
2023-02-27T23:07:50.586Z,87.91
2023-02-27T23:10:20.512Z,87.58
2023-02-27T23:12:50.446Z,87.46
2023-02-27T23:15:20.604Z,87.19
2023-02-27T23:17:57.983Z,87.31
2023-02-27T23:20:28.818Z,87.36
2023-02-27T23:22:58.897Z,88.00
2023-02-27T23:25:29.281Z,87.70
2023-02-27T23:27:59.005Z,87.11
2023-02-27T23:30:29.727Z,87.66
2023-02-27T23:33:00.285Z,88.21
2023-02-27T23:35:32.131Z,88.51
2023-02-27T23:38:03.020Z,87.80
2023-02-27T23:40:33.145Z,87.83
2023-02-27T23:43:08.307Z,87.85
2023-02-27T23:45:39.498Z,88.33
2023-02-27T23:48:10.261Z,88.13
2023-02-27T23:50:45.196Z,88.47
2023-02-27T23:53:36.770Z,88.67
2023-02-27T23:56:24.060Z,88.29
2023-02-27T23:58:59.872Z,89.02
